Time;durP1;ratioP1;P1;durP2;ratioP2;P2;SDS_P1;SDS_P2;PMS_P1;PMS_P2;Temp;Humidity;BMP_temperature;BMP_pressure;BME280_temperature;BME280_humidity;BME280_pressure;Samples;Min_cycle;Max_cycle;Signal;HPM_P1;HPM_P2
2023/03/11 00:02:18;;;;;;;0.10;0.10;;;3.10;99.90;;;;;;5019409;28;20655;-87
2023/03/11 00:04:44;;;;;;;0.10;0.10;;;3.10;99.90;;;;;;5017869;28;20193;-87
2023/03/11 00:07:10;;;;;;;0.10;0.10;;;3.10;99.90;;;;;;5018862;28;20206;-86
2023/03/11 00:09:37;;;;;;;0.10;0.10;;;3.10;99.90;;;;;;5036507;28;20203;-87
2023/03/11 00:12:03;;;;;;;0.00;0.00;;;3.10;99.90;;;;;;5016501;28;20272;-87
2023/03/11 00:14:29;;;;;;;0.10;0.10;;;3.20;99.90;;;;;;5036057;28;20213;-88
2023/03/11 00:16:55;;;;;;;0.10;0.10;;;3.20;99.90;;;;;;5019088;28;20687;-86
2023/03/11 00:19:21;;;;;;;0.10;0.10;;;3.10;99.90;;;;;;5017678;28;20204;-88
2023/03/11 00:21:47;;;;;;;0.10;0.10;;;3.20;99.90;;;;;;5018156;28;20647;-87
2023/03/11 00:24:12;;;;;;;0.10;0.10;;;3.20;99.90;;;;;;5033913;28;20195;-88
2023/03/11 00:26:38;;;;;;;0.10;0.10;;;3.20;99.90;;;;;;5018855;28;20204;-88
2023/03/11 00:29:03;;;;;;;0.10;0.10;;;3.10;99.90;;;;;;5016681;28;20198;-88
2023/03/11 00:31:29;;;;;;;0.10;0.10;;;3.10;99.90;;;;;;5018693;28;20187;-88
2023/03/11 00:33:56;;;;;;;0.10;0.10;;;3.10;99.90;;;;;;5018589;28;20190;-86
2023/03/11 00:36:32;;;;;;;0.10;0.10;;;3.10;99.90;;;;;;5019903;28;20200;-87
2023/03/11 00:38:58;;;;;;;0.07;0.07;;;3.00;99.90;;;;;;5016072;28;20220;-87
2023/03/11 00:41:25;;;;;;;0.10;0.10;;;3.00;99.90;;;;;;5027416;28;20184;-86
2023/03/11 00:43:50;;;;;;;0.10;0.10;;;3.00;99.90;;;;;;5035478;28;20625;-88
2023/03/11 00:46:16;;;;;;;0.00;0.00;;;2.90;99.90;;;;;;5046484;28;20306;-87
2023/03/11 00:48:41;;;;;;;0.10;0.10;;;2.90;99.90;;;;;;5030700;28;20201;-87
2023/03/11 00:51:12;;;;;;;0.10;0.10;;;2.80;99.90;;;;;;5025851;28;20192;-87
2023/03/11 00:53:37;;;;;;;0.10;0.10;;;2.90;99.90;;;;;;5019627;28;20539;-88
2023/03/11 00:56:11;;;;;;;0.10;0.10;;;2.90;99.90;;;;;;5017938;28;20276;-87
2023/03/11 00:58:37;;;;;;;0.10;0.10;;;3.00;99.90;;;;;;5016341;28;20209;-86
2023/03/11 01:01:12;;;;;;;0.10;0.10;;;3.00;99.90;;;;;;5025719;28;21808;-88
2023/03/11 01:03:38;;;;;;;0.10;0.10;;;3.00;99.90;;;;;;5033553;28;20203;-87
2023/03/11 01:06:04;;;;;;;0.10;0.10;;;3.20;99.90;;;;;;5025466;28;20216;-87
2023/03/11 01:08:30;;;;;;;0.10;0.10;;;3.10;99.90;;;;;;5017533;28;20198;-88
2023/03/11 01:10:57;;;;;;;0.10;0.10;;;3.10;99.90;;;;;;5036298;28;20253;-87
2023/03/11 01:13:23;;;;;;;0.90;0.57;;;3.10;99.90;;;;;;5034317;28;20186;-87
2023/03/11 01:15:49;;;;;;;0.10;0.10;;;3.00;99.90;;;;;;5017692;28;20187;-88
2023/03/11 01:18:15;;;;;;;0.10;0.10;;;2.90;99.90;;;;;;5016515;28;20197;-88
2023/03/11 01:20:41;;;;;;;0.10;0.10;;;2.80;99.90;;;;;;5016521;28;20220;-87
2023/03/11 01:23:07;;;;;;;0.10;0.10;;;2.70;99.90;;;;;;5036661;28;20241;-87
2023/03/11 01:25:34;;;;;;;0.10;0.10;;;2.70;99.90;;;;;;5017224;28;20182;-87
2023/03/11 01:27:59;;;;;;;0.10;0.10;;;2.70;99.90;;;;;;5033007;28;20220;-88
2023/03/11 01:30:26;;;;;;;0.10;0.10;;;2.70;99.90;;;;;;5019072;28;20660;-88
2023/03/11 01:32:53;;;;;;;0.10;0.10;;;2.60;99.90;;;;;;5016903;28;20174;-87
2023/03/11 01:35:21;;;;;;;0.10;0.10;;;2.60;99.90;;;;;;5017801;28;20667;-88
2023/03/11 01:37:46;;;;;;;0.10;0.10;;;2.60;99.90;;;;;;5016748;28;20208;-86
2023/03/11 01:40:37;;;;;;;0.10;0.10;;;2.70;99.90;;;;;;5034688;28;20265;-87
2023/03/11 01:43:05;;;;;;;0.10;0.10;;;2.70;99.90;;;;;;5034583;28;20181;-87
2023/03/11 01:46:01;;;;;;;0.10;0.10;;;2.80;99.90;;;;;;5021638;28;20319;-86
2023/03/11 01:48:26;;;;;;;0.10;0.10;;;2.80;99.90;;;;;;5038025;28;20211;-87
2023/03/11 01:50:52;;;;;;;0.10;0.10;;;2.80;99.90;;;;;;5020159;28;20183;-87
2023/03/11 01:53:18;;;;;;;0.10;0.10;;;2.90;99.90;;;;;;5020681;28;20768;-88
2023/03/11 01:55:44;;;;;;;0.10;0.10;;;2.90;99.90;;;;;;5040024;28;20189;-87
2023/03/11 01:58:16;;;;;;;0.00;0.00;;;3.00;99.90;;;;;;5021636;28;20208;-87
2023/03/11 02:00:43;;;;;;;0.10;0.10;;;3.00;99.90;;;;;;5022715;28;20197;-87
2023/03/11 02:03:16;;;;;;;0.10;0.10;;;3.10;99.90;;;;;;5020654;28;20271;-87
2023/03/11 02:05:42;;;;;;;0.10;0.10;;;3.10;99.90;;;;;;5039060;28;20190;-88
2023/03/11 02:08:07;;;;;;;0.10;0.10;;;3.10;99.90;;;;;;5020310;28;20201;-88
2023/03/11 02:10:33;;;;;;;0.10;0.10;;;3.10;99.90;;;;;;5020511;28;20204;-88
2023/03/11 02:12:59;;;;;;;0.10;0.10;;;3.00;99.90;;;;;;5038113;28;20595;-88
2023/03/11 02:15:25;;;;;;;0.10;0.10;;;3.00;99.90;;;;;;5035273;28;20245;-87
2023/03/11 02:17:52;;;;;;;0.10;0.10;;;3.00;99.90;;;;;;5038943;28;20246;-88
2023/03/11 02:20:42;;;;;;;0.10;0.10;;;3.10;99.90;;;;;;5019776;28;20274;-87
2023/03/11 02:23:08;;;;;;;0.10;0.10;;;3.10;99.90;;;;;;5036712;28;20197;-87
2023/03/11 02:25:42;;;;;;;0.10;0.10;;;3.10;99.90;;;;;;5038051;28;20261;-88
2023/03/11 02:28:11;;;;;;;0.10;0.10;;;3.10;99.90;;;;;;5018759;28;20204;-87
2023/03/11 02:30:41;;;;;;;0.10;0.10;;;3.10;99.90;;;;;;5036710;28;20185;-88
2023/03/11 02:33:07;;;;;;;0.03;0.03;;;3.00;99.90;;;;;;5018511;28;20189;-88
2023/03/11 02:35:33;;;;;;;0.10;0.10;;;3.10;99.90;;;;;;5021717;28;20805;-87
2023/03/11 02:37:58;;;;;;;0.10;0.10;;;3.10;99.90;;;;;;5037666;28;20197;-88
2023/03/11 02:40:26;;;;;;;0.00;0.00;;;3.10;99.90;;;;;;5020033;28;20207;-87
2023/03/11 02:42:59;;;;;;;0.10;0.10;;;3.10;99.90;;;;;;5037358;28;20227;-88
2023/03/11 02:45:26;;;;;;;0.10;0.10;;;3.10;99.90;;;;;;5039420;28;20549;-87
2023/03/11 02:47:55;;;;;;;0.10;0.10;;;3.10;99.90;;;;;;5019291;28;20210;-88
2023/03/11 02:50:21;;;;;;;0.10;0.10;;;3.20;99.90;;;;;;5018751;28;21204;-88
2023/03/11 02:52:48;;;;;;;0.07;0.07;;;3.10;99.90;;;;;;5018210;28;20202;-88
2023/03/11 02:55:15;;;;;;;0.10;0.10;;;3.20;99.90;;;;;;5037979;28;20183;-87
2023/03/11 02:57:41;;;;;;;0.10;0.10;;;3.20;99.90;;;;;;5019113;28;20205;-88
2023/03/11 03:00:13;;;;;;;0.10;0.10;;;3.20;99.90;;;;;;5019811;28;20200;-87
2023/03/11 03:02:40;;;;;;;0.10;0.10;;;3.10;99.90;;;;;;5037115;28;20227;-88
2023/03/11 03:05:06;;;;;;;0.10;0.10;;;3.10;99.90;;;;;;5017795;28;20200;-87
2023/03/11 03:07:32;;;;;;;0.10;0.10;;;3.00;99.90;;;;;;5028477;28;20254;-87
2023/03/11 03:09:57;;;;;;;0.10;0.10;;;2.90;99.90;;;;;;5018575;28;20604;-87
2023/03/11 03:12:23;;;;;;;0.10;0.10;;;2.90;99.90;;;;;;5038410;28;20204;-87
2023/03/11 03:14:49;;;;;;;0.00;0.00;;;2.90;99.90;;;;;;5017428;28;20280;-87
2023/03/11 03:17:15;;;;;;;0.10;0.10;;;2.90;99.90;;;;;;5018257;28;20557;-88
2023/03/11 03:19:40;;;;;;;0.10;0.10;;;2.90;99.90;;;;;;5035915;28;20277;-86
2023/03/11 03:22:05;;;;;;;0.10;0.10;;;2.90;99.90;;;;;;5027703;28;20288;-87
2023/03/11 03:24:31;;;;;;;0.10;0.10;;;3.00;99.90;;;;;;5020046;28;20273;-88
2023/03/11 03:26:56;;;;;;;0.10;0.10;;;2.90;99.90;;;;;;5037134;28;20857;-88
2023/03/11 03:29:22;;;;;;;0.10;0.10;;;3.00;99.90;;;;;;5017290;28;20189;-87
2023/03/11 03:31:48;;;;;;;0.00;0.00;;;3.00;99.90;;;;;;5020495;28;20180;-87
2023/03/11 03:34:13;;;;;;;0.10;0.10;;;3.00;99.90;;;;;;5017875;28;20273;-87
2023/03/11 03:36:39;;;;;;;0.00;0.00;;;3.00;99.90;;;;;;5018687;28;20692;-87
2023/03/11 03:39:05;;;;;;;0.10;0.10;;;3.00;99.90;;;;;;5036593;28;20209;-87
2023/03/11 03:41:31;;;;;;;0.10;0.10;;;3.00;99.90;;;;;;5036826;28;20577;-86
2023/03/11 03:43:57;;;;;;;0.10;0.10;;;3.00;99.90;;;;;;5016676;28;20219;-85
2023/03/11 03:46:22;;;;;;;0.10;0.10;;;3.00;99.90;;;;;;5020392;28;20379;-86
2023/03/11 03:48:48;;;;;;;0.10;0.10;;;3.00;99.90;;;;;;5019381;28;20268;-88
2023/03/11 03:51:14;;;;;;;0.10;0.10;;;3.00;99.90;;;;;;5035931;28;20194;-88
2023/03/11 03:53:40;;;;;;;0.10;0.10;;;2.90;99.90;;;;;;5018348;28;20269;-87
2023/03/11 03:56:11;;;;;;;0.10;0.10;;;2.80;99.90;;;;;;5034259;28;20200;-87
2023/03/11 03:58:37;;;;;;;0.00;0.00;;;2.90;99.90;;;;;;5036313;28;20236;-87
2023/03/11 04:01:04;;;;;;;0.10;0.10;;;2.90;99.90;;;;;;5036334;28;20272;-86
2023/03/11 04:03:30;;;;;;;0.10;0.10;;;2.90;99.90;;;;;;5036576;28;20185;-88
2023/03/11 04:06:06;;;;;;;0.10;0.10;;;2.90;99.90;;;;;;5017971;28;20218;-87
2023/03/11 04:08:31;;;;;;;0.10;0.10;;;2.90;99.90;;;;;;5018599;28;20209;-88
2023/03/11 04:10:57;;;;;;;0.10;0.10;;;2.90;99.90;;;;;;5018594;28;20171;-87
2023/03/11 04:13:23;;;;;;;0.10;0.10;;;3.00;99.90;;;;;;5020247;28;20555;-88
2023/03/11 04:15:48;;;;;;;0.00;0.00;;;3.00;99.90;;;;;;5020165;28;20228;-87
2023/03/11 04:18:14;;;;;;;0.10;0.10;;;3.00;99.90;;;;;;5019242;28;20205;-87
2023/03/11 04:20:40;;;;;;;0.10;0.10;;;3.00;99.90;;;;;;5017511;28;20229;-87
2023/03/11 04:23:06;;;;;;;0.10;0.10;;;3.00;99.90;;;;;;5036049;28;20197;-87
2023/03/11 04:25:33;;;;;;;0.10;0.10;;;3.00;99.90;;;;;;5033756;28;20554;-86
2023/03/11 04:27:58;;;;;;;0.10;0.10;;;3.00;99.90;;;;;;5018379;28;20738;-88
2023/03/11 04:30:24;;;;;;;0.10;0.10;;;3.10;99.90;;;;;;5018668;28;20394;-88
2023/03/11 04:32:49;;;;;;;0.10;0.10;;;3.00;99.90;;;;;;5021159;28;20192;-88
2023/03/11 04:35:15;;;;;;;0.10;0.10;;;3.00;99.90;;;;;;5017589;28;20174;-87
2023/03/11 04:37:40;;;;;;;0.10;0.10;;;3.00;99.90;;;;;;5045056;28;20519;-88
2023/03/11 04:40:07;;;;;;;0.10;0.10;;;3.00;99.90;;;;;;5028060;28;20225;-86
2023/03/11 04:42:33;;;;;;;0.10;0.10;;;3.00;99.90;;;;;;5020576;28;20206;-87
2023/03/11 04:44:58;;;;;;;0.10;0.10;;;3.00;99.90;;;;;;5035413;28;20186;-88
2023/03/11 04:47:24;;;;;;;0.10;0.10;;;3.00;99.90;;;;;;5018951;28;20217;-87
2023/03/11 04:49:49;;;;;;;0.03;0.03;;;3.00;99.90;;;;;;5036462;28;20556;-87
2023/03/11 04:52:15;;;;;;;0.10;0.10;;;3.00;99.90;;;;;;5034256;28;20296;-87
2023/03/11 04:54:40;;;;;;;0.10;0.10;;;3.00;99.90;;;;;;5018735;28;20189;-86
2023/03/11 04:57:06;;;;;;;0.10;0.10;;;2.90;99.90;;;;;;5018057;28;20233;-87
2023/03/11 04:59:32;;;;;;;0.10;0.10;;;2.90;99.90;;;;;;5016651;28;20182;-88
2023/03/11 05:01:57;;;;;;;0.10;0.10;;;2.80;99.90;;;;;;5018359;28;20177;-88
2023/03/11 05:04:23;;;;;;;0.00;0.00;;;2.70;99.90;;;;;;5033404;28;20190;-88
2023/03/11 05:06:51;;;;;;;0.10;0.10;;;2.60;99.90;;;;;;5036781;28;20217;-88
2023/03/11 05:09:16;;;;;;;0.10;0.10;;;2.60;99.90;;;;;;5017996;28;20223;-87
2023/03/11 05:11:42;;;;;;;0.10;0.10;;;2.50;99.90;;;;;;5018753;28;20584;-88
2023/03/11 05:14:07;;;;;;;0.00;0.00;;;2.50;99.90;;;;;;5018028;28;20189;-87
2023/03/11 05:16:33;;;;;;;0.10;0.10;;;2.50;99.90;;;;;;5017313;28;20208;-88
2023/03/11 05:18:58;;;;;;;0.10;0.10;;;2.40;99.90;;;;;;5019210;28;20942;-88
2023/03/11 05:21:24;;;;;;;0.10;0.10;;;2.30;99.90;;;;;;5040746;28;20198;-86
2023/03/11 05:23:49;;;;;;;0.10;0.10;;;2.30;99.90;;;;;;5039353;28;20670;-88
2023/03/11 05:26:15;;;;;;;0.10;0.10;;;2.30;99.90;;;;;;5023077;28;20300;-87
2023/03/11 05:28:40;;;;;;;0.10;0.10;;;2.30;99.90;;;;;;5038059;28;20313;-88
2023/03/11 05:31:10;;;;;;;0.10;0.10;;;2.20;99.90;;;;;;5040134;28;20212;-88
2023/03/11 05:33:35;;;;;;;0.03;0.03;;;2.20;99.90;;;;;;5040068;28;20186;-88
2023/03/11 05:36:08;;;;;;;0.10;0.10;;;2.10;99.90;;;;;;5040784;28;20273;-88
2023/03/11 05:38:36;;;;;;;0.10;0.10;;;2.10;99.90;;;;;;5022332;28;20247;-87
2023/03/11 05:41:01;;;;;;;0.10;0.10;;;2.00;99.90;;;;;;5037604;28;20189;-87
2023/03/11 05:43:27;;;;;;;0.10;0.10;;;2.00;99.90;;;;;;5020811;28;20189;-88
2023/03/11 05:45:52;;;;;;;0.00;0.00;;;2.00;99.90;;;;;;5040123;28;20184;-88
2023/03/11 05:48:18;;;;;;;0.00;0.00;;;2.00;99.90;;;;;;5020976;28;20201;-88
2023/03/11 05:50:43;;;;;;;0.10;0.10;;;2.00;99.90;;;;;;5040364;28;20179;-87
2023/03/11 05:53:09;;;;;;;0.10;0.10;;;2.00;99.90;;;;;;5021771;28;20237;-86
2023/03/11 05:55:34;;;;;;;0.10;0.10;;;1.90;99.90;;;;;;5022445;28;20183;-85
2023/03/11 05:58:00;;;;;;;0.03;0.03;;;2.00;99.90;;;;;;5020888;28;20312;-87
2023/03/11 06:00:28;;;;;;;0.10;0.10;;;2.00;99.90;;;;;;5022145;28;20264;-87
2023/03/11 06:02:53;;;;;;;0.10;0.10;;;1.90;99.90;;;;;;5020879;28;20756;-88
2023/03/11 06:05:19;;;;;;;0.10;0.10;;;1.90;99.90;;;;;;5020996;28;20190;-87
2023/03/11 06:07:45;;;;;;;0.10;0.10;;;1.90;99.90;;;;;;5020324;28;20220;-86
2023/03/11 06:10:11;;;;;;;0.10;0.10;;;1.90;99.90;;;;;;5018980;28;20193;-85
2023/03/11 06:12:37;;;;;;;0.10;0.10;;;2.00;99.90;;;;;;5020942;28;20186;-86
2023/03/11 06:15:04;;;;;;;0.10;0.10;;;2.00;99.90;;;;;;5018953;28;20266;-87
2023/03/11 06:17:30;;;;;;;0.00;0.00;;;2.00;99.90;;;;;;5030523;28;20676;-86
2023/03/11 06:19:55;;;;;;;0.10;0.10;;;2.10;99.90;;;;;;5021798;28;20203;-87
2023/03/11 06:22:21;;;;;;;0.10;0.10;;;2.20;99.90;;;;;;5024564;28;20187;-87
2023/03/11 06:24:46;;;;;;;0.10;0.10;;;2.20;99.90;;;;;;5032076;28;20189;-87
2023/03/11 06:27:12;;;;;;;0.10;0.10;;;2.30;99.90;;;;;;5042220;28;20236;-86
2023/03/11 06:29:37;;;;;;;0.10;0.10;;;2.30;99.90;;;;;;5020542;28;20197;-87
2023/03/11 06:32:03;;;;;;;0.07;0.07;;;2.40;99.90;;;;;;5028133;28;20195;-86
2023/03/11 06:34:29;;;;;;;0.10;0.10;;;2.50;99.90;;;;;;5032811;28;20201;-87
2023/03/11 06:36:54;;;;;;;0.10;0.10;;;2.60;99.90;;;;;;5025551;28;20732;-86
2023/03/11 06:39:20;;;;;;;0.10;0.10;;;2.70;99.90;;;;;;5044379;28;20201;-85
2023/03/11 06:41:45;;;;;;;0.10;0.10;;;2.70;99.90;;;;;;5022253;28;20213;-86
2023/03/11 06:44:11;;;;;;;0.10;0.10;;;2.80;99.90;;;;;;5026968;28;20221;-86
2023/03/11 06:46:37;;;;;;;0.10;0.10;;;2.90;99.90;;;;;;5022565;28;20219;-85
2023/03/11 06:49:03;;;;;;;0.10;0.10;;;3.00;99.90;;;;;;5023870;28;20181;-85
2023/03/11 06:51:28;;;;;;;0.10;0.10;;;3.10;99.90;;;;;;5026180;28;20194;-86
2023/03/11 06:53:54;;;;;;;0.10;0.10;;;3.10;99.90;;;;;;5037589;28;20227;-84
2023/03/11 06:56:21;;;;;;;0.10;0.10;;;3.20;99.90;;;;;;5038630;28;20193;-86
2023/03/11 06:58:47;;;;;;;0.10;0.10;;;3.30;99.90;;;;;;5031933;28;20243;-86
2023/03/11 07:01:21;;;;;;;0.10;0.10;;;3.30;99.90;;;;;;5030949;28;20189;-85
2023/03/11 07:03:48;;;;;;;0.10;0.10;;;3.30;99.90;;;;;;5028966;28;20287;-86
2023/03/11 07:06:19;;;;;;;0.10;0.10;;;3.50;99.90;;;;;;5030162;28;20238;-86
2023/03/11 07:08:47;;;;;;;0.10;0.10;;;3.50;99.90;;;;;;5027669;28;20219;-85
2023/03/11 07:11:17;;;;;;;0.10;0.10;;;3.70;99.90;;;;;;5029044;28;20206;-85
2023/03/11 07:13:44;;;;;;;0.10;0.10;;;3.70;99.90;;;;;;5029067;28;20178;-85
2023/03/11 07:16:14;;;;;;;0.10;0.10;;;3.80;99.90;;;;;;5047047;28;20185;-86
2023/03/11 07:18:43;;;;;;;0.10;0.10;;;4.00;99.90;;;;;;5031034;28;20306;-85
2023/03/11 07:21:08;;;;;;;0.10;0.10;;;4.20;99.90;;;;;;5034628;28;20166;-86
2023/03/11 07:23:35;;;;;;;0.10;0.10;;;4.30;99.90;;;;;;5032871;28;20190;-86
2023/03/11 07:26:01;;;;;;;0.10;0.10;;;4.30;99.90;;;;;;5029571;28;20192;-86
2023/03/11 07:28:28;;;;;;;0.10;0.10;;;4.30;99.90;;;;;;5029890;28;20197;-86
2023/03/11 07:30:54;;;;;;;0.10;0.10;;;4.00;99.90;;;;;;5033062;28;20197;-86
2023/03/11 07:33:22;;;;;;;0.10;0.10;;;4.20;99.90;;;;;;5032250;28;20209;-86
2023/03/11 07:35:48;;;;;;;0.10;0.10;;;4.50;99.90;;;;;;5033612;28;20180;-85
2023/03/11 07:38:16;;;;;;;0.10;0.10;;;4.80;99.90;;;;;;5031330;28;20208;-86
2023/03/11 07:40:42;;;;;;;0.10;0.10;;;4.90;99.90;;;;;;5028070;28;20213;-86
2023/03/11 07:43:08;;;;;;;0.10;0.10;;;4.90;99.90;;;;;;5043680;28;20273;-84
2023/03/11 07:45:34;;;;;;;0.07;0.07;;;5.00;99.90;;;;;;5028185;28;20216;-85
2023/03/11 07:47:59;;;;;;;0.10;0.10;;;5.20;99.90;;;;;;5042021;28;20217;-86
2023/03/11 07:50:25;;;;;;;0.10;0.10;;;5.20;99.90;;;;;;5027992;28;20186;-85
2023/03/11 07:52:51;;;;;;;0.10;0.10;;;5.20;99.90;;;;;;5028112;28;20190;-84
2023/03/11 07:55:16;;;;;;;0.10;0.10;;;5.10;99.90;;;;;;5044314;28;20198;-85
2023/03/11 07:57:42;;;;;;;0.10;0.10;;;5.20;99.90;;;;;;5020014;28;20217;-84
2023/03/11 08:00:09;;;;;;;0.00;0.00;;;5.20;99.90;;;;;;5024807;28;20202;-85
2023/03/11 08:02:34;;;;;;;0.10;0.10;;;4.60;99.90;;;;;;5028965;28;20199;-85
2023/03/11 08:05:00;;;;;;;0.80;0.80;;;4.90;99.90;;;;;;5026966;28;20198;-84
2023/03/11 08:07:26;;;;;;;0.33;0.33;;;5.10;99.90;;;;;;5026555;28;20284;-86
2023/03/11 08:09:51;;;;;;;0.10;0.10;;;5.30;99.90;;;;;;5027722;28;20184;-85
2023/03/11 08:12:17;;;;;;;2.20;2.13;;;5.30;99.90;;;;;;5026727;28;20190;-85
2023/03/11 08:14:42;;;;;;;0.00;0.00;;;5.40;99.90;;;;;;5024961;28;20350;-86
2023/03/11 08:17:09;;;;;;;0.10;0.10;;;5.40;99.90;;;;;;5022983;28;20256;-85
2023/03/11 08:19:35;;;;;;;0.10;0.10;;;5.40;99.90;;;;;;5029889;28;20212;-85
2023/03/11 08:22:04;;;;;;;0.00;0.00;;;5.40;99.90;;;;;;5026566;28;20200;-85
2023/03/11 08:24:29;;;;;;;0.00;0.00;;;5.50;99.90;;;;;;5028161;28;20394;-85
2023/03/11 08:26:55;;;;;;;0.07;0.07;;;5.50;99.90;;;;;;5029302;28;20218;-85
2023/03/11 08:29:23;;;;;;;0.00;0.00;;;5.30;99.90;;;;;;5030068;28;20254;-84
2023/03/11 08:31:50;;;;;;;0.10;0.10;;;5.40;99.90;;;;;;5019836;28;20193;-85
2023/03/11 08:34:16;;;;;;;0.10;0.10;;;5.50;99.90;;;;;;5036518;28;20198;-85
2023/03/11 08:36:42;;;;;;;0.10;0.10;;;5.40;99.90;;;;;;5041768;28;20766;-85
2023/03/11 08:39:08;;;;;;;0.10;0.10;;;5.10;99.90;;;;;;5039810;28;20231;-86
2023/03/11 08:41:33;;;;;;;0.03;0.03;;;5.50;99.90;;;;;;5045681;28;20190;-87
2023/03/11 08:44:02;;;;;;;0.10;0.10;;;5.30;99.90;;;;;;5045015;28;20175;-86
2023/03/11 08:46:35;;;;;;;0.00;0.00;;;5.30;99.90;;;;;;5058140;28;20234;-85
2023/03/11 08:49:03;;;;;;;0.10;0.10;;;5.10;99.90;;;;;;5034098;28;20182;-83
2023/03/11 08:51:30;;;;;;;0.10;0.10;;;4.80;99.90;;;;;;5048032;28;20194;-83
2023/03/11 08:53:56;;;;;;;0.10;0.10;;;5.20;99.90;;;;;;5032728;28;20197;-84
2023/03/11 08:56:21;;;;;;;0.10;0.10;;;4.80;99.90;;;;;;5019220;28;20186;-83
2023/03/11 08:58:47;;;;;;;0.10;0.10;;;5.00;99.90;;;;;;5038094;28;20255;-83
2023/03/11 09:01:13;;;;;;;0.10;0.10;;;4.50;99.90;;;;;;5038332;28;20182;-83
2023/03/11 09:03:39;;;;;;;0.00;0.00;;;4.50;99.90;;;;;;5020685;28;20189;-84
2023/03/11 09:06:07;;;;;;;0.10;0.10;;;4.20;99.90;;;;;;5022655;28;20198;-83
2023/03/11 09:08:33;;;;;;;0.00;0.00;;;4.30;99.90;;;;;;5031105;28;20202;-82
2023/03/11 09:10:59;;;;;;;0.10;0.10;;;4.70;99.90;;;;;;5021367;28;20179;-83
2023/03/11 09:13:25;;;;;;;0.10;0.10;;;5.00;99.90;;;;;;5021824;28;20539;-83
2023/03/11 09:15:51;;;;;;;0.10;0.10;;;5.00;99.90;;;;;;5019220;28;20189;-84
2023/03/11 09:18:17;;;;;;;0.00;0.00;;;4.90;99.90;;;;;;5023503;28;20688;-83
2023/03/11 09:20:44;;;;;;;0.10;0.10;;;4.30;99.90;;;;;;5029627;28;20186;-83
2023/03/11 09:23:11;;;;;;;0.10;0.10;;;4.00;99.90;;;;;;5019913;28;20186;-83
2023/03/11 09:25:37;;;;;;;0.10;0.10;;;3.60;99.90;;;;;;5037291;28;20185;-83
2023/03/11 09:28:03;;;;;;;0.10;0.10;;;3.50;99.90;;;;;;5036295;28;20217;-82
2023/03/11 09:30:29;;;;;;;0.10;0.10;;;3.40;99.90;;;;;;5018500;28;20289;-83
2023/03/11 09:32:55;;;;;;;0.10;0.10;;;3.60;99.90;;;;;;5036759;28;20190;-84
2023/03/11 09:35:20;;;;;;;0.10;0.10;;;3.70;99.90;;;;;;5037833;28;20189;-84
2023/03/11 09:37:46;;;;;;;0.10;0.10;;;3.90;99.90;;;;;;5015280;28;20208;-83
2023/03/11 09:40:16;;;;;;;0.10;0.10;;;4.70;99.90;;;;;;5018236;28;20201;-84
2023/03/11 09:42:56;;;;;;;0.00;0.00;;;4.90;99.90;;;;;;5040075;28;20657;-84
2023/03/11 09:45:37;;;;;;;0.10;0.10;;;5.10;99.90;;;;;;5035029;28;20178;-83
2023/03/11 09:48:38;;;;;;;0.10;0.10;;;5.00;99.90;;;;;;5015129;28;20245;-84
2023/03/11 09:51:20;;;;;;;0.10;0.10;;;5.30;99.90;;;;;;5018669;28;20206;-85
2023/03/11 09:53:50;;;;;;;0.00;0.00;;;5.20;99.90;;;;;;5018818;28;20184;-85
2023/03/11 09:56:19;;;;;;;0.10;0.10;;;5.50;99.90;;;;;;5034548;28;20210;-85
2023/03/11 09:58:51;;;;;;;0.10;0.10;;;5.40;99.90;;;;;;5033011;28;20671;-85
2023/03/11 10:01:32;;;;;;;0.40;0.40;;;5.40;99.90;;;;;;5016959;28;20186;-85
2023/03/11 10:04:19;;;;;;;0.00;0.00;;;4.70;99.90;;;;;;5016247;28;20190;-86
2023/03/11 10:06:46;;;;;;;0.03;0.03;;;4.60;99.90;;;;;;5040840;28;20653;-85
2023/03/11 10:09:29;;;;;;;0.00;0.00;;;4.60;99.90;;;;;;5038104;28;20186;-84
2023/03/11 10:12:13;;;;;;;0.50;0.50;;;4.80;99.90;;;;;;5036151;28;20183;-84
2023/03/11 10:14:56;;;;;;;0.10;0.10;;;5.40;99.90;;;;;;5020030;28;20186;-84
2023/03/11 10:17:42;;;;;;;0.10;0.10;;;6.20;99.90;;;;;;5039306;28;20357;-85
2023/03/11 10:20:33;;;;;;;0.10;0.10;;;5.80;99.90;;;;;;5020162;28;20191;-85
2023/03/11 10:23:15;;;;;;;0.10;0.10;;;6.00;99.90;;;;;;5021092;28;20182;-85
2023/03/11 10:26:14;;;;;;;0.07;0.07;;;5.60;99.90;;;;;;5037488;28;20548;-83
2023/03/11 10:29:27;;;;;;;0.10;0.10;;;5.20;99.90;;;;;;5021414;28;20201;-85
2023/03/11 10:32:38;;;;;;;0.00;0.00;;;4.80;99.90;;;;;;4981374;28;20543;-84
2023/03/11 10:35:22;;;;;;;0.10;0.10;;;5.00;99.90;;;;;;4959495;28;20200;-84
2023/03/11 10:38:04;;;;;;;0.10;0.10;;;5.00;99.90;;;;;;5018146;28;20206;-85
2023/03/11 10:40:33;;;;;;;0.10;0.10;;;5.30;99.90;;;;;;5020587;28;20173;-85
2023/03/11 10:43:12;;;;;;;0.10;0.10;;;5.40;99.90;;;;;;5037590;28;20274;-85
2023/03/11 10:45:43;;;;;;;0.10;0.10;;;5.70;99.90;;;;;;5022151;28;20185;-85
2023/03/11 10:48:20;;;;;;;0.10;0.10;;;6.70;99.90;;;;;;5023859;28;20351;-85
2023/03/11 10:51:01;;;;;;;0.10;0.10;;;7.10;99.90;;;;;;5019552;28;20184;-85
2023/03/11 10:53:27;;;;;;;0.10;0.10;;;7.10;99.90;;;;;;5020369;28;20203;-84
2023/03/11 10:55:55;;;;;;;0.10;0.10;;;6.90;99.90;;;;;;5039111;28;20187;-84
2023/03/11 10:58:24;;;;;;;0.10;0.10;;;6.40;99.90;;;;;;5038907;28;20293;-85
2023/03/11 11:01:14;;;;;;;0.07;0.07;;;6.60;99.90;;;;;;5022728;28;20565;-85
2023/03/11 11:03:42;;;;;;;0.10;0.10;;;6.60;99.90;;;;;;5018997;28;20186;-86
2023/03/11 11:06:27;;;;;;;0.10;0.10;;;6.40;99.90;;;;;;5036794;28;20249;-85
2023/03/11 11:09:19;;;;;;;0.10;0.10;;;6.50;99.90;;;;;;5020796;28;20179;-85
2023/03/11 11:12:14;;;;;;;0.03;0.03;;;6.10;99.90;;;;;;5019960;28;20179;-86
2023/03/11 11:14:52;;;;;;;0.10;0.10;;;6.00;99.90;;;;;;5020964;28;20195;-86
2023/03/11 11:17:26;;;;;;;0.10;0.10;;;5.80;99.90;;;;;;5017836;28;20571;-86
2023/03/11 11:19:53;;;;;;;0.07;0.07;;;5.70;99.90;;;;;;5022233;28;20179;-84
2023/03/11 11:22:22;;;;;;;0.10;0.10;;;6.40;99.90;;;;;;5022635;28;20195;-86
2023/03/11 11:24:52;;;;;;;0.10;0.10;;;6.60;99.90;;;;;;5020480;28;20192;-86
2023/03/11 11:27:29;;;;;;;0.10;0.10;;;7.00;99.90;;;;;;5035634;28;21195;-86
2023/03/11 11:30:06;;;;;;;0.10;0.10;;;7.20;99.90;;;;;;5018893;28;20257;-86
2023/03/11 11:32:31;;;;;;;0.00;0.00;;;7.50;99.90;;;;;;5044197;28;20178;-86
2023/03/11 11:35:00;;;;;;;0.10;0.10;;;8.00;99.90;;;;;;5033247;28;20196;-86
2023/03/11 11:37:30;;;;;;;0.10;0.10;;;7.80;99.90;;;;;;5036418;28;20208;-85
2023/03/11 11:40:13;;;;;;;0.10;0.10;;;7.30;99.90;;;;;;5038167;28;20268;-86
2023/03/11 11:42:42;;;;;;;0.10;0.10;;;7.10;99.90;;;;;;5034408;28;20632;-86
2023/03/11 11:45:22;;;;;;;0.10;0.10;;;7.00;99.90;;;;;;5053759;28;20191;-85
2023/03/11 11:47:52;;;;;;;0.10;0.10;;;6.80;99.90;;;;;;5025623;28;20227;-84
2023/03/11 11:50:40;;;;;;;0.10;0.10;;;6.70;99.90;;;;;;5022898;28;20181;-85
2023/03/11 11:53:39;;;;;;;0.10;0.10;;;6.60;99.90;;;;;;5024108;28;20240;-86
2023/03/11 11:56:05;;;;;;;0.10;0.10;;;5.90;99.90;;;;;;4990781;28;20509;-85
2023/03/11 11:58:33;;;;;;;0.10;0.10;;;5.90;99.90;;;;;;5025119;28;20265;-85
2023/03/11 12:01:15;;;;;;;6.97;6.60;;;5.60;99.90;;;;;;5043591;28;20205;-84
2023/03/11 12:03:59;;;;;;;0.10;0.10;;;5.40;99.90;;;;;;5037754;28;20211;-87
2023/03/11 12:06:44;;;;;;;0.10;0.10;;;6.40;99.90;;;;;;5035131;28;20219;-84
2023/03/11 12:09:22;;;;;;;0.10;0.10;;;7.10;99.90;;;;;;5041399;28;20348;-83
2023/03/11 12:12:06;;;;;;;0.10;0.10;;;7.80;99.90;;;;;;5043052;28;20195;-84
2023/03/11 12:14:42;;;;;;;0.10;0.10;;;8.00;99.90;;;;;;5020130;28;20267;-82
2023/03/11 12:17:10;;;;;;;0.00;0.00;;;7.50;99.90;;;;;;5024404;28;20653;-82
2023/03/11 12:19:59;;;;;;;0.10;0.10;;;7.60;99.90;;;;;;5037895;28;20201;-83
2023/03/11 12:22:49;;;;;;;0.10;0.10;;;8.00;99.90;;;;;;5021175;28;20488;-83
2023/03/11 12:25:27;;;;;;;0.10;0.10;;;8.20;99.90;;;;;;5022789;28;20200;-83
2023/03/11 12:27:58;;;;;;;0.10;0.10;;;8.10;99.90;;;;;;5020415;28;20227;-83
2023/03/11 12:30:31;;;;;;;0.10;0.10;;;8.20;99.90;;;;;;5022892;28;20213;-83
2023/03/11 12:33:04;;;;;;;0.10;0.10;;;8.10;99.90;;;;;;5040338;28;20213;-83
2023/03/11 12:35:34;;;;;;;0.10;0.10;;;8.40;99.90;;;;;;5043119;28;20200;-83
2023/03/11 12:38:11;;;;;;;0.10;0.10;;;7.90;99.90;;;;;;5050849;28;20202;-83
2023/03/11 12:40:58;;;;;;;0.10;0.10;;;8.20;99.90;;;;;;5044351;28;20193;-83
2023/03/11 12:43:46;;;;;;;0.10;0.10;;;8.40;99.90;;;;;;5042492;28;20186;-83
2023/03/11 12:46:13;;;;;;;0.10;0.10;;;8.50;99.90;;;;;;5019215;28;20231;-83
2023/03/11 12:48:44;;;;;;;0.10;0.10;;;8.40;99.90;;;;;;5038277;28;20220;-84
2023/03/11 12:51:33;;;;;;;0.10;0.10;;;7.90;99.90;;;;;;5028971;28;20277;-84
2023/03/11 12:54:38;;;;;;;0.10;0.10;;;7.40;99.90;;;;;;5012883;28;20449;-83
2023/03/11 12:57:15;;;;;;;0.00;0.00;;;6.60;99.90;;;;;;5024240;28;20243;-84
2023/03/11 13:00:08;;;;;;;0.10;0.10;;;6.50;99.90;;;;;;5039827;28;20187;-84
2023/03/11 13:03:12;;;;;;;0.10;0.10;;;6.30;99.90;;;;;;5038350;28;20185;-83
2023/03/11 13:06:04;;;;;;;0.10;0.10;;;6.30;99.90;;;;;;5037690;28;20782;-82
2023/03/11 13:08:53;;;;;;;0.10;0.10;;;6.20;99.90;;;;;;5017972;28;20219;-83
2023/03/11 13:11:31;;;;;;;0.10;0.10;;;5.80;99.90;;;;;;5021270;28;20180;-85
2023/03/11 13:14:34;;;;;;;0.10;0.10;;;6.10;99.90;;;;;;5031452;28;20198;-83